createdAt,value
2019-01-29T00:00:05.477Z,0
2019-01-29T00:05:05.635Z,0
2019-01-29T00:10:05.507Z,0
2019-01-29T00:15:05.405Z,0
2019-01-29T00:20:05.464Z,0
2019-01-29T00:25:05.538Z,0
2019-01-29T00:30:05.324Z,0
2019-01-29T00:35:05.365Z,0
2019-01-29T00:40:05.298Z,0
2019-01-29T00:45:05.302Z,0
2019-01-29T00:50:05.596Z,0
2019-01-29T00:55:05.284Z,0
2019-01-29T01:00:05.482Z,0
2019-01-29T01:05:05.458Z,0
2019-01-29T01:10:05.466Z,0
2019-01-29T01:15:05.218Z,0
2019-01-29T01:20:05.303Z,0
2019-01-29T01:25:05.287Z,0
2019-01-29T01:30:05.480Z,0
2019-01-29T01:35:05.390Z,0
2019-01-29T01:40:05.303Z,0
2019-01-29T01:45:05.114Z,0
2019-01-29T01:50:05.458Z,0
2019-01-29T01:55:05.275Z,0
2019-01-29T02:00:05.204Z,0
2019-01-29T02:05:05.343Z,0
2019-01-29T02:10:05.191Z,0
2019-01-29T02:15:05.361Z,0
2019-01-29T02:20:05.235Z,0
2019-01-29T02:25:05.387Z,0
2019-01-29T02:30:05.348Z,0
2019-01-29T02:35:05.209Z,0
2019-01-29T02:40:05.120Z,0
2019-01-29T02:45:05.224Z,0
2019-01-29T02:50:05.097Z,0
2019-01-29T02:55:05.177Z,0
2019-01-29T03:00:05.086Z,0
2019-01-29T03:05:05.279Z,0
2019-01-29T03:10:05.218Z,0
2019-01-29T03:15:05.270Z,0
2019-01-29T03:20:05.051Z,0
2019-01-29T03:25:05.020Z,0
2019-01-29T03:30:05.280Z,0
2019-01-29T03:35:05.067Z,0
2019-01-29T03:40:05.077Z,0
2019-01-29T03:45:05.160Z,0
2019-01-29T03:50:05.186Z,0
2019-01-29T03:55:05.018Z,0
2019-01-29T04:00:05.140Z,0
2019-01-29T04:05:05.170Z,0
2019-01-29T04:10:05.050Z,0
2019-01-29T04:15:05.133Z,0
2019-01-29T04:20:05.178Z,0
2019-01-29T04:25:05.132Z,0
2019-01-29T04:30:05.136Z,0
2019-01-29T04:35:04.871Z,0
2019-01-29T04:40:05.103Z,0
2019-01-29T04:45:04.883Z,0
2019-01-29T04:50:05.155Z,0
2019-01-29T04:55:05.236Z,0
2019-01-29T05:00:05.039Z,0
2019-01-29T05:05:04.999Z,0
2019-01-29T05:10:04.862Z,0
2019-01-29T05:15:05.011Z,0
2019-01-29T05:20:04.839Z,0
2019-01-29T05:25:04.842Z,0
2019-01-29T05:30:05.060Z,0
2019-01-29T05:35:05.001Z,0
2019-01-29T05:40:05.155Z,0
2019-01-29T05:45:04.830Z,0
2019-01-29T05:50:04.937Z,0
2019-01-29T05:55:04.923Z,0
2019-01-29T06:00:05.119Z,0
2019-01-29T06:05:04.904Z,0
2019-01-29T06:10:05.048Z,0
2019-01-29T06:15:05.022Z,0
2019-01-29T06:20:05.068Z,0
2019-01-29T06:25:04.907Z,0
2019-01-29T06:30:04.955Z,0
2019-01-29T06:35:04.728Z,0
2019-01-29T06:40:04.847Z,0
2019-01-29T06:45:04.781Z,0
2019-01-29T06:50:05.007Z,0
2019-01-29T06:55:04.890Z,0
2019-01-29T07:00:05.052Z,0
2019-01-29T07:05:04.959Z,0
2019-01-29T07:10:04.773Z,0
2019-01-29T07:15:04.655Z,0
2019-01-29T07:20:05.014Z,0
2019-01-29T07:25:04.804Z,0.8
2019-01-29T07:30:05.007Z,0.8
2019-01-29T07:35:05.012Z,1.7
2019-01-29T07:40:04.737Z,3.3
2019-01-29T07:45:04.870Z,4.2
2019-01-29T07:50:04.844Z,5
2019-01-29T07:55:05.009Z,6.7
2019-01-29T08:00:04.657Z,7.5
2019-01-29T08:05:04.948Z,9.2
2019-01-29T08:10:04.679Z,10.8
2019-01-29T08:15:04.594Z,12.5
2019-01-29T08:20:04.878Z,13.3
2019-01-29T08:25:04.834Z,15.8
2019-01-29T08:30:04.601Z,18.3
2019-01-29T08:35:04.891Z,21.7
2019-01-29T08:40:04.582Z,23.3
2019-01-29T08:45:04.955Z,23.3
2019-01-29T08:50:04.822Z,23.3
2019-01-29T08:55:10.625Z,23.3
2019-01-29T09:00:04.571Z,23.3
2019-01-29T09:05:04.606Z,25.8
2019-01-29T09:10:04.722Z,28.3
2019-01-29T09:15:04.833Z,30
2019-01-29T09:20:04.713Z,37.5
2019-01-29T09:25:04.697Z,42.5
2019-01-29T09:30:04.929Z,43.3
2019-01-29T09:35:04.860Z,36.7
2019-01-29T09:40:04.486Z,48.3
2019-01-29T09:45:04.596Z,39.2
2019-01-29T09:50:04.835Z,36.7
2019-01-29T09:55:04.593Z,36.7
2019-01-29T10:00:04.623Z,36.7
2019-01-29T10:05:04.523Z,40
2019-01-29T10:10:04.957Z,39.2
2019-01-29T10:15:04.808Z,37.5
2019-01-29T10:20:04.729Z,35.8
2019-01-29T10:25:04.548Z,36.7
2019-01-29T10:30:04.612Z,35.8
2019-01-29T10:35:04.700Z,35.8
2019-01-29T10:40:04.730Z,34.2
2019-01-29T10:45:04.848Z,36.7
2019-01-29T10:50:04.827Z,38.3
2019-01-29T10:55:04.756Z,41.7
2019-01-29T11:00:05.022Z,40
2019-01-29T11:05:04.514Z,43.3
2019-01-29T11:10:06.221Z,42.5
2019-01-29T11:15:05.122Z,42.5
2019-01-29T12:00:14.289Z,85
2019-01-29T12:05:08.373Z,88.3
2019-01-29T12:10:09.286Z,100
2019-01-29T12:15:08.227Z,104.2
2019-01-29T12:20:08.423Z,115
2019-01-29T12:25:08.032Z,129.2
2019-01-29T12:30:08.641Z,121.7
2019-01-29T12:35:08.405Z,120.8
2019-01-29T12:40:08.448Z,140
2019-01-29T12:45:08.962Z,140
2019-01-29T12:50:08.235Z,150.8
2019-01-29T12:55:09.526Z,122.5
2019-01-29T13:00:08.103Z,119.2
2019-01-29T13:05:07.885Z,96.7
2019-01-29T13:10:08.100Z,53.3
2019-01-29T13:15:08.261Z,49.2
2019-01-29T13:20:08.416Z,48.3
2019-01-29T13:25:08.146Z,49.2
2019-01-29T13:30:08.005Z,50
2019-01-29T13:35:08.237Z,50
2019-01-29T13:40:08.223Z,50.8
2019-01-29T13:45:07.981Z,50.8
2019-01-29T13:50:08.326Z,58.3
2019-01-29T13:55:08.087Z,55
2019-01-29T14:00:08.245Z,56.7
2019-01-29T14:05:08.178Z,59.2
2019-01-29T14:10:08.056Z,62.5
2019-01-29T14:15:08.163Z,55
2019-01-29T14:20:08.885Z,50
2019-01-29T14:25:07.843Z,49.2
2019-01-29T14:30:07.942Z,46.7
2019-01-29T14:35:07.647Z,49.2
2019-01-29T14:40:07.856Z,45.8
2019-01-29T14:45:07.710Z,41.7
2019-01-29T14:50:07.847Z,40.8
2019-01-29T14:55:08.008Z,38.3
2019-01-29T15:00:07.885Z,36.7
2019-01-29T15:05:07.745Z,33.3
2019-01-29T15:10:07.660Z,30
2019-01-29T15:15:07.825Z,27.5
2019-01-29T15:20:08.406Z,25
2019-01-29T15:25:08.102Z,21.7
2019-01-29T15:30:08.050Z,18.3
2019-01-29T15:35:08.355Z,15.8
2019-01-29T15:40:08.099Z,13.3
2019-01-29T15:45:09.024Z,11.7
2019-01-29T15:50:08.832Z,10
2019-01-29T15:55:07.878Z,7.5
2019-01-29T16:00:12.365Z,5.8
2019-01-29T16:05:08.171Z,4.2
2019-01-29T16:10:08.524Z,2.5
2019-01-29T16:15:07.937Z,1.7
2019-01-29T16:20:08.186Z,0.8
2019-01-29T16:25:08.653Z,0.8
2019-01-29T16:30:08.659Z,0
2019-01-29T16:35:07.849Z,0
2019-01-29T16:40:08.405Z,0
2019-01-29T16:45:08.150Z,0
2019-01-29T16:50:08.240Z,0
2019-01-29T16:55:08.264Z,0
2019-01-29T17:00:08.148Z,0
2019-01-29T17:05:08.067Z,0
2019-01-29T17:10:08.160Z,0
2019-01-29T17:15:08.776Z,0
2019-01-29T17:20:07.995Z,0
2019-01-29T17:25:08.148Z,0
2019-01-29T17:30:07.864Z,0
2019-01-29T17:35:08.040Z,0
2019-01-29T17:40:08.008Z,0
2019-01-29T17:45:07.771Z,0
2019-01-29T17:50:07.686Z,0
2019-01-29T17:55:08.520Z,0
2019-01-29T18:00:08.722Z,0
2019-01-29T18:05:07.857Z,0
2019-01-29T18:10:07.576Z,0
2019-01-29T18:15:08.139Z,0
2019-01-29T18:20:07.806Z,0
2019-01-29T18:25:07.688Z,0
2019-01-29T18:30:07.581Z,0
2019-01-29T18:35:07.989Z,0
2019-01-29T18:40:07.518Z,0
2019-01-29T18:45:07.889Z,0
2019-01-29T18:50:08.213Z,0
2019-01-29T18:55:07.563Z,0
2019-01-29T19:00:08.106Z,0
2019-01-29T19:05:07.597Z,0
2019-01-29T19:10:07.685Z,0
2019-01-29T19:15:07.753Z,0
2019-01-29T19:20:07.533Z,0
2019-01-29T19:25:07.525Z,0
2019-01-29T19:30:07.966Z,0
2019-01-29T19:35:07.842Z,0
2019-01-29T19:40:07.604Z,0
2019-01-29T19:45:07.457Z,0
2019-01-29T19:50:07.440Z,0
2019-01-29T19:55:07.632Z,0
2019-01-29T20:00:09.088Z,0
2019-01-29T20:09:24.110Z,0
2019-01-29T20:10:07.403Z,0
2019-01-29T20:15:07.468Z,0
2019-01-29T20:20:08.257Z,0
2019-01-29T20:25:07.873Z,0
2019-01-29T20:30:08.056Z,0
2019-01-29T20:35:08.566Z,0
2019-01-29T20:40:08.002Z,0
2019-01-29T20:45:07.665Z,0
2019-01-29T20:50:08.046Z,0
2019-01-29T20:55:07.439Z,0
2019-01-29T21:00:08.134Z,0
2019-01-29T21:05:07.725Z,0
2019-01-29T21:10:08.508Z,0
2019-01-29T21:15:09.424Z,0
2019-01-29T21:20:07.734Z,0
2019-01-29T21:25:08.250Z,0
2019-01-29T21:30:08.010Z,0
2019-01-29T21:35:07.906Z,0
2019-01-29T21:40:07.598Z,0
2019-01-29T21:45:09.180Z,0
2019-01-29T21:50:11.582Z,0
2019-01-29T21:55:07.394Z,0
2019-01-29T22:00:11.319Z,0
2019-01-29T22:05:07.634Z,0
2019-01-29T22:10:10.500Z,0
2019-01-29T22:15:07.769Z,0
2019-01-29T22:20:07.878Z,0
2019-01-29T22:25:09.609Z,0
2019-01-29T22:30:07.843Z,0
2019-01-29T22:35:08.187Z,0
2019-01-29T22:40:08.844Z,0
2019-01-29T22:45:09.666Z,0
2019-01-29T22:50:08.322Z,0
2019-01-29T22:55:08.380Z,0
2019-01-29T23:00:19.317Z,0
2019-01-29T23:05:07.090Z,0
2019-01-29T23:10:07.836Z,0
2019-01-29T23:15:11.886Z,0
2019-01-29T23:20:09.627Z,0
2019-01-29T23:25:07.920Z,0
2019-01-29T23:30:10.217Z,0
2019-01-29T23:35:10.147Z,0
2019-01-29T23:40:07.922Z,0
2019-01-29T23:45:09.159Z,0
2019-01-29T23:50:10.226Z,0
2019-01-29T23:55:09.133Z,0
